Islip, New York
Current Conditions -  °F | °C
As of 11:56 AM on Thursday 30 Oct 2014 (Local Time) from KISP Reporting Station
Scattered Clouds Scattered Clouds  
Wind Chill: 58°   Ceiling: Unl
Heat Index: 58°   Visibility: 10mi
Dew Point: 43°   Wind: 6mph
Humidity: 58%   Direction: NA
Pressure: 29.96"   Gusts: NA
Location:  40.73°N, 73.21°W
Report Text: KISP 301556Z VRB05KT 10SM FEW040 SCT075 14/06 A2996 RMK AO2 SLP145 T01440061
Loading
Personal Weather Stations






























Interactive Weather Map New forecast layout! Learn more

10-Day Weather Forecast

Advertisements
Track Severe Weather on mobile